Terminal Aerodrome Forecast
Issued by NWS

Home | Current Version | Previous Version | Text Only | Print | Product List | Glossary On
Versions: 1 2 3 4 5 6 7 8 9 10 11 12 13 14 15 16 17 18 19 20 21 22 23 24
000
FTAK31 PANC 301134
TAFATK
TAF
PATK 301134Z 3012/3112 08003KT P6SM FEW070 OVC100
     FM301700 02015G22KT P6SM OVC100
     FM302000 01010KT P6SM OVC100=

USA.gov is the U.S. government's official web portal to all federal, state and local government web resources and services.